sensor_id;sensor_type;location;lat;lon;timestamp;P1;durP1;ratioP1;P2;durP2;ratioP2
30096;SDS011;16915;51.466;3.610;2023-02-24T00:04:19;8.57;;;1.70;;
30096;SDS011;16915;51.466;3.610;2023-02-24T00:06:45;9.40;;;1.45;;
30096;SDS011;16915;51.466;3.610;2023-02-24T00:09:16;10.35;;;1.50;;
30096;SDS011;16915;51.466;3.610;2023-02-24T00:12:01;7.00;;;1.30;;
30096;SDS011;16915;51.466;3.610;2023-02-24T00:14:30;11.30;;;1.30;;
30096;SDS011;16915;51.466;3.610;2023-02-24T00:16:57;8.10;;;1.50;;
30096;SDS011;16915;51.466;3.610;2023-02-24T00:19:24;12.27;;;1.92;;
30096;SDS011;16915;51.466;3.610;2023-02-24T00:21:52;10.85;;;1.60;;
30096;SDS011;16915;51.466;3.610;2023-02-24T00:24:20;11.75;;;1.55;;
30096;SDS011;16915;51.466;3.610;2023-02-24T00:26:50;13.25;;;1.52;;
30096;SDS011;16915;51.466;3.610;2023-02-24T00:29:19;13.93;;;1.50;;
30096;SDS011;16915;51.466;3.610;2023-02-24T00:31:45;15.30;;;1.98;;
30096;SDS011;16915;51.466;3.610;2023-02-24T00:34:20;12.10;;;1.20;;
30096;SDS011;16915;51.466;3.610;2023-02-24T00:36:47;8.15;;;1.20;;
30096;SDS011;16915;51.466;3.610;2023-02-24T00:39:13;5.55;;;1.50;;
30096;SDS011;16915;51.466;3.610;2023-02-24T00:41:40;10.55;;;2.03;;
30096;SDS011;16915;51.466;3.610;2023-02-24T00:44:08;11.25;;;1.52;;
30096;SDS011;16915;51.466;3.610;2023-02-24T00:46:39;9.40;;;1.33;;
30096;SDS011;16915;51.466;3.610;2023-02-24T00:49:13;4.95;;;1.25;;
30096;SDS011;16915;51.466;3.610;2023-02-24T00:51:41;11.20;;;1.88;;
30096;SDS011;16915;51.466;3.610;2023-02-24T00:54:09;5.88;;;1.17;;
30096;SDS011;16915;51.466;3.610;2023-02-24T00:56:39;7.43;;;1.13;;
30096;SDS011;16915;51.466;3.610;2023-02-24T00:59:05;6.95;;;1.13;;
30096;SDS011;16915;51.466;3.610;2023-02-24T01:01:31;9.02;;;1.48;;
30096;SDS011;16915;51.466;3.610;2023-02-24T01:03:58;7.25;;;0.93;;
30096;SDS011;16915;51.466;3.610;2023-02-24T01:06:30;6.85;;;1.27;;
30096;SDS011;16915;51.466;3.610;2023-02-24T01:08:58;7.22;;;1.30;;
30096;SDS011;16915;51.466;3.610;2023-02-24T01:11:25;9.00;;;1.80;;
30096;SDS011;16915;51.466;3.610;2023-02-24T01:14:13;6.53;;;0.90;;
30096;SDS011;16915;51.466;3.610;2023-02-24T01:16:40;8.93;;;1.23;;
30096;SDS011;16915;51.466;3.610;2023-02-24T01:19:08;9.07;;;1.27;;
30096;SDS011;16915;51.466;3.610;2023-02-24T01:21:35;10.82;;;1.00;;
30096;SDS011;16915;51.466;3.610;2023-02-24T01:24:00;5.05;;;1.17;;
30096;SDS011;16915;51.466;3.610;2023-02-24T01:26:26;8.73;;;1.20;;
30096;SDS011;16915;51.466;3.610;2023-02-24T01:28:53;8.07;;;1.13;;
30096;SDS011;16915;51.466;3.610;2023-02-24T01:31:19;9.05;;;0.95;;
30096;SDS011;16915;51.466;3.610;2023-02-24T01:33:46;6.65;;;1.00;;
30096;SDS011;16915;51.466;3.610;2023-02-24T01:36:13;8.85;;;0.95;;
30096;SDS011;16915;51.466;3.610;2023-02-24T01:38:43;11.63;;;1.05;;
30096;SDS011;16915;51.466;3.610;2023-02-24T01:41:10;7.32;;;0.93;;
30096;SDS011;16915;51.466;3.610;2023-02-24T01:46:48;5.72;;;0.90;;
30096;SDS011;16915;51.466;3.610;2023-02-24T01:49:18;5.60;;;0.70;;
30096;SDS011;16915;51.466;3.610;2023-02-24T01:51:58;6.35;;;1.00;;
30096;SDS011;16915;51.466;3.610;2023-02-24T01:54:30;6.50;;;1.17;;
30096;SDS011;16915;51.466;3.610;2023-02-24T01:57:03;4.93;;;0.80;;
30096;SDS011;16915;51.466;3.610;2023-02-24T01:59:29;5.95;;;0.80;;
30096;SDS011;16915;51.466;3.610;2023-02-24T02:01:58;9.55;;;1.00;;
30096;SDS011;16915;51.466;3.610;2023-02-24T02:04:38;11.63;;;1.38;;
30096;SDS011;16915;51.466;3.610;2023-02-24T02:07:16;10.73;;;1.05;;
30096;SDS011;16915;51.466;3.610;2023-02-24T02:09:45;10.98;;;1.05;;
30096;SDS011;16915;51.466;3.610;2023-02-24T02:12:12;3.65;;;0.50;;
30096;SDS011;16915;51.466;3.610;2023-02-24T02:14:39;8.48;;;1.05;;
30096;SDS011;16915;51.466;3.610;2023-02-24T02:25:43;6.18;;;1.00;;
30096;SDS011;16915;51.466;3.610;2023-02-24T02:48:23;3.60;;;0.50;;
30096;SDS011;16915;51.466;3.610;2023-02-24T02:51:02;6.85;;;0.93;;
30096;SDS011;16915;51.466;3.610;2023-02-24T02:53:37;4.65;;;0.93;;
30096;SDS011;16915;51.466;3.610;2023-02-24T02:58:50;9.77;;;0.98;;
30096;SDS011;16915;51.466;3.610;2023-02-24T03:01:18;7.38;;;0.70;;
30096;SDS011;16915;51.466;3.610;2023-02-24T03:03:47;4.35;;;0.82;;
30096;SDS011;16915;51.466;3.610;2023-02-24T03:06:18;6.70;;;1.00;;
30096;SDS011;16915;51.466;3.610;2023-02-24T03:09:00;10.60;;;0.85;;
30096;SDS011;16915;51.466;3.610;2023-02-24T03:11:40;5.60;;;0.70;;
30096;SDS011;16915;51.466;3.610;2023-02-24T03:14:07;9.85;;;0.90;;
30096;SDS011;16915;51.466;3.610;2023-02-24T03:16:36;5.03;;;0.90;;
30096;SDS011;16915;51.466;3.610;2023-02-24T03:19:05;6.65;;;0.80;;
30096;SDS011;16915;51.466;3.610;2023-02-24T03:21:36;9.13;;;0.85;;
30096;SDS011;16915;51.466;3.610;2023-02-24T03:24:04;11.70;;;1.00;;
30096;SDS011;16915;51.466;3.610;2023-02-24T03:29:06;3.58;;;0.63;;
30096;SDS011;16915;51.466;3.610;2023-02-24T03:31:59;7.68;;;1.08;;
30096;SDS011;16915;51.466;3.610;2023-02-24T03:34:53;6.10;;;0.65;;
30096;SDS011;16915;51.466;3.610;2023-02-24T03:37:21;13.30;;;0.98;;
30096;SDS011;16915;51.466;3.610;2023-02-24T03:39:51;6.80;;;0.88;;
30096;SDS011;16915;51.466;3.610;2023-02-24T03:42:20;7.15;;;1.15;;
30096;SDS011;16915;51.466;3.610;2023-02-24T03:44:48;9.10;;;1.08;;
30096;SDS011;16915;51.466;3.610;2023-02-24T03:47:14;5.53;;;0.80;;
30096;SDS011;16915;51.466;3.610;2023-02-24T03:49:44;4.90;;;0.73;;
30096;SDS011;16915;51.466;3.610;2023-02-24T03:52:22;5.95;;;0.65;;
30096;SDS011;16915;51.466;3.610;2023-02-24T03:55:21;5.03;;;0.60;;
30096;SDS011;16915;51.466;3.610;2023-02-24T03:58:14;6.93;;;1.92;;
30096;SDS011;16915;51.466;3.610;2023-02-24T04:01:08;8.68;;;0.95;;
30096;SDS011;16915;51.466;3.610;2023-02-24T04:03:40;9.27;;;1.30;;
30096;SDS011;16915;51.466;3.610;2023-02-24T04:11:29;6.50;;;1.20;;
30096;SDS011;16915;51.466;3.610;2023-02-24T04:14:05;5.53;;;1.05;;
30096;SDS011;16915;51.466;3.610;2023-02-24T04:17:01;10.10;;;1.40;;
30096;SDS011;16915;51.466;3.610;2023-02-24T04:19:52;10.15;;;1.40;;
30096;SDS011;16915;51.466;3.610;2023-02-24T04:22:21;6.83;;;0.97;;
30096;SDS011;16915;51.466;3.610;2023-02-24T04:24:51;3.78;;;0.57;;
30096;SDS011;16915;51.466;3.610;2023-02-24T04:27:20;13.93;;;1.83;;
30096;SDS011;16915;51.466;3.610;2023-02-24T04:29:49;9.05;;;0.98;;
30096;SDS011;16915;51.466;3.610;2023-02-24T04:32:17;8.10;;;0.85;;
30096;SDS011;16915;51.466;3.610;2023-02-24T04:34:47;4.50;;;0.85;;
30096;SDS011;16915;51.466;3.610;2023-02-24T04:37:13;7.05;;;1.33;;
30096;SDS011;16915;51.466;3.610;2023-02-24T04:39:39;5.95;;;0.93;;
30096;SDS011;16915;51.466;3.610;2023-02-24T04:42:04;7.88;;;0.93;;
30096;SDS011;16915;51.466;3.610;2023-02-24T04:44:30;1.52;;;0.73;;
30096;SDS011;16915;51.466;3.610;2023-02-24T04:46:59;8.32;;;1.17;;
30096;SDS011;16915;51.466;3.610;2023-02-24T04:49:25;9.55;;;1.10;;
30096;SDS011;16915;51.466;3.610;2023-02-24T04:51:51;4.55;;;0.65;;
30096;SDS011;16915;51.466;3.610;2023-02-24T04:54:17;9.77;;;1.23;;
30096;SDS011;16915;51.466;3.610;2023-02-24T04:56:49;9.82;;;1.17;;
30096;SDS011;16915;51.466;3.610;2023-02-24T04:59:19;5.00;;;0.95;;
30096;SDS011;16915;51.466;3.610;2023-02-24T05:01:45;8.15;;;1.27;;
30096;SDS011;16915;51.466;3.610;2023-02-24T05:04:15;3.38;;;0.90;;
30096;SDS011;16915;51.466;3.610;2023-02-24T05:06:41;7.35;;;0.82;;
30096;SDS011;16915;51.466;3.610;2023-02-24T05:09:14;7.88;;;1.35;;
30096;SDS011;16915;51.466;3.610;2023-02-24T05:11:42;6.40;;;1.27;;
30096;SDS011;16915;51.466;3.610;2023-02-24T05:14:12;7.63;;;1.05;;
30096;SDS011;16915;51.466;3.610;2023-02-24T05:16:40;8.32;;;1.25;;
30096;SDS011;16915;51.466;3.610;2023-02-24T05:19:08;2.72;;;1.00;;
30096;SDS011;16915;51.466;3.610;2023-02-24T05:21:53;6.45;;;0.98;;
30096;SDS011;16915;51.466;3.610;2023-02-24T05:24:21;8.23;;;1.27;;
30096;SDS011;16915;51.466;3.610;2023-02-24T05:26:49;9.27;;;1.00;;
30096;SDS011;16915;51.466;3.610;2023-02-24T05:29:22;5.57;;;0.95;;
30096;SDS011;16915;51.466;3.610;2023-02-24T05:31:50;3.95;;;0.68;;
30096;SDS011;16915;51.466;3.610;2023-02-24T05:34:18;3.97;;;0.77;;
30096;SDS011;16915;51.466;3.610;2023-02-24T05:36:43;7.70;;;1.23;;
30096;SDS011;16915;51.466;3.610;2023-02-24T05:39:10;4.28;;;1.00;;
30096;SDS011;16915;51.466;3.610;2023-02-24T05:41:37;8.43;;;1.00;;
30096;SDS011;16915;51.466;3.610;2023-02-24T05:44:06;7.10;;;0.88;;
30096;SDS011;16915;51.466;3.610;2023-02-24T05:46:38;4.43;;;0.90;;
30096;SDS011;16915;51.466;3.610;2023-02-24T05:51:47;6.80;;;1.13;;
30096;SDS011;16915;51.466;3.610;2023-02-24T05:54:20;4.35;;;0.82;;
30096;SDS011;16915;51.466;3.610;2023-02-24T05:56:58;7.28;;;1.05;;
30096;SDS011;16915;51.466;3.610;2023-02-24T05:59:25;4.38;;;1.05;;
30096;SDS011;16915;51.466;3.610;2023-02-24T06:04:24;9.00;;;1.58;;
30096;SDS011;16915;51.466;3.610;2023-02-24T06:07:16;9.52;;;1.30;;
30096;SDS011;16915;51.466;3.610;2023-02-24T06:09:45;6.93;;;1.00;;
30096;SDS011;16915;51.466;3.610;2023-02-24T06:12:14;6.50;;;1.10;;
30096;SDS011;16915;51.466;3.610;2023-02-24T06:14:40;3.95;;;1.05;;
30096;SDS011;16915;51.466;3.610;2023-02-24T06:17:06;7.47;;;1.10;;
30096;SDS011;16915;51.466;3.610;2023-02-24T06:19:32;5.10;;;1.23;;
30096;SDS011;16915;51.466;3.610;2023-02-24T06:21:58;8.52;;;1.58;;
30096;SDS011;16915;51.466;3.610;2023-02-24T06:24:29;7.78;;;1.67;;
30096;SDS011;16915;51.466;3.610;2023-02-24T06:26:57;14.90;;;1.33;;
30096;SDS011;16915;51.466;3.610;2023-02-24T06:29:26;9.93;;;1.88;;
30096;SDS011;16915;51.466;3.610;2023-02-24T06:31:54;6.97;;;1.25;;
30096;SDS011;16915;51.466;3.610;2023-02-24T06:34:21;10.50;;;1.52;;
30096;SDS011;16915;51.466;3.610;2023-02-24T06:36:49;9.15;;;1.55;;
30096;SDS011;16915;51.466;3.610;2023-02-24T06:39:15;8.93;;;1.75;;
30096;SDS011;16915;51.466;3.610;2023-02-24T06:41:41;7.18;;;1.20;;
30096;SDS011;16915;51.466;3.610;2023-02-24T06:44:06;4.88;;;1.13;;
30096;SDS011;16915;51.466;3.610;2023-02-24T06:46:33;8.18;;;1.45;;
30096;SDS011;16915;51.466;3.610;2023-02-24T06:48:59;8.40;;;1.65;;
30096;SDS011;16915;51.466;3.610;2023-02-24T06:51:25;9.20;;;1.80;;
30096;SDS011;16915;51.466;3.610;2023-02-24T06:53:57;9.93;;;1.60;;
30096;SDS011;16915;51.466;3.610;2023-02-24T06:56:23;8.63;;;1.27;;
30096;SDS011;16915;51.466;3.610;2023-02-24T06:58:51;8.30;;;1.48;;
30096;SDS011;16915;51.466;3.610;2023-02-24T07:01:22;5.07;;;1.10;;
30096;SDS011;16915;51.466;3.610;2023-02-24T07:03:51;5.38;;;1.15;;
30096;SDS011;16915;51.466;3.610;2023-02-24T07:06:42;4.35;;;1.17;;
30096;SDS011;16915;51.466;3.610;2023-02-24T07:09:10;6.45;;;1.65;;
30096;SDS011;16915;51.466;3.610;2023-02-24T07:11:38;7.10;;;1.38;;
30096;SDS011;16915;51.466;3.610;2023-02-24T07:14:06;11.07;;;1.92;;
30096;SDS011;16915;51.466;3.610;2023-02-24T07:16:34;6.47;;;1.13;;
30096;SDS011;16915;51.466;3.610;2023-02-24T07:19:00;5.55;;;1.55;;
30096;SDS011;16915;51.466;3.610;2023-02-24T07:21:29;5.30;;;1.20;;
30096;SDS011;16915;51.466;3.610;2023-02-24T07:24:03;9.38;;;1.25;;
30096;SDS011;16915;51.466;3.610;2023-02-24T07:26:30;9.75;;;2.20;;
30096;SDS011;16915;51.466;3.610;2023-02-24T07:28:55;4.82;;;1.40;;
30096;SDS011;16915;51.466;3.610;2023-02-24T07:31:22;6.43;;;1.88;;
30096;SDS011;16915;51.466;3.610;2023-02-24T07:33:53;14.75;;;2.10;;
30096;SDS011;16915;51.466;3.610;2023-02-24T07:38:52;5.47;;;1.30;;
30096;SDS011;16915;51.466;3.610;2023-02-24T07:41:19;6.45;;;1.50;;
30096;SDS011;16915;51.466;3.610;2023-02-24T07:43:47;9.68;;;1.30;;
30096;SDS011;16915;51.466;3.610;2023-02-24T07:46:17;7.00;;;1.33;;
30096;SDS011;16915;51.466;3.610;2023-02-24T07:48:44;9.23;;;1.40;;
30096;SDS011;16915;51.466;3.610;2023-02-24T07:51:13;11.55;;;1.25;;
30096;SDS011;16915;51.466;3.610;2023-02-24T07:53:41;10.73;;;1.50;;
30096;SDS011;16915;51.466;3.610;2023-02-24T07:56:14;6.38;;;1.75;;
30096;SDS011;16915;51.466;3.610;2023-02-24T07:58:43;11.55;;;1.85;;
30096;SDS011;16915;51.466;3.610;2023-02-24T08:01:10;8.70;;;1.88;;
30096;SDS011;16915;51.466;3.610;2023-02-24T08:03:47;3.10;;;1.60;;
30096;SDS011;16915;51.466;3.610;2023-02-24T08:06:20;5.25;;;1.70;;
30096;SDS011;16915;51.466;3.610;2023-02-24T08:08:57;7.53;;;1.88;;
30096;SDS011;16915;51.466;3.610;2023-02-24T08:11:27;8.13;;;2.03;;
30096;SDS011;16915;51.466;3.610;2023-02-24T08:14:04;4.03;;;2.40;;
30096;SDS011;16915;51.466;3.610;2023-02-24T08:16:35;9.18;;;2.20;;
30096;SDS011;16915;51.466;3.610;2023-02-24T08:19:10;9.18;;;2.92;;
30096;SDS011;16915;51.466;3.610;2023-02-24T08:21:38;6.65;;;2.30;;
30096;SDS011;16915;51.466;3.610;2023-02-24T08:24:12;10.98;;;2.33;;
30096;SDS011;16915;51.466;3.610;2023-02-24T08:26:48;9.00;;;2.00;;
30096;SDS011;16915;51.466;3.610;2023-02-24T08:29:37;11.25;;;2.55;;
30096;SDS011;16915;51.466;3.610;2023-02-24T08:35:17;8.80;;;2.38;;
30096;SDS011;16915;51.466;3.610;2023-02-24T08:37:51;8.60;;;1.70;;
30096;SDS011;16915;51.466;3.610;2023-02-24T08:40:25;11.57;;;1.95;;
30096;SDS011;16915;51.466;3.610;2023-02-24T08:43:12;11.25;;;1.77;;
30096;SDS011;16915;51.466;3.610;2023-02-24T08:45:48;9.30;;;1.70;;
30096;SDS011;16915;51.466;3.610;2023-02-24T08:48:19;7.85;;;1.67;;
30096;SDS011;16915;51.466;3.610;2023-02-24T08:53:47;10.88;;;1.75;;
30096;SDS011;16915;51.466;3.610;2023-02-24T08:56:17;13.45;;;1.70;;
30096;SDS011;16915;51.466;3.610;2023-02-24T08:58:48;8.55;;;1.13;;
30096;SDS011;16915;51.466;3.610;2023-02-24T09:01:21;8.88;;;1.80;;
30096;SDS011;16915;51.466;3.610;2023-02-24T09:03:55;6.32;;;1.48;;
30096;SDS011;16915;51.466;3.610;2023-02-24T09:07:05;6.78;;;1.38;;
30096;SDS011;16915;51.466;3.610;2023-02-24T09:09:14;11.55;;;1.95;;
30096;SDS011;16915;51.466;3.610;2023-02-24T09:11:42;9.55;;;1.58;;
30096;SDS011;16915;51.466;3.610;2023-02-24T09:14:13;12.13;;;1.40;;
30096;SDS011;16915;51.466;3.610;2023-02-24T09:16:44;8.77;;;1.70;;
30096;SDS011;16915;51.466;3.610;2023-02-24T09:19:27;14.02;;;1.67;;
30096;SDS011;16915;51.466;3.610;2023-02-24T09:22:25;10.23;;;1.40;;
30096;SDS011;16915;51.466;3.610;2023-02-24T09:30:32;11.77;;;1.92;;
30096;SDS011;16915;51.466;3.610;2023-02-24T09:33:15;10.65;;;1.90;;
30096;SDS011;16915;51.466;3.610;2023-02-24T09:38:33;8.30;;;2.40;;
30096;SDS011;16915;51.466;3.610;2023-02-24T09:41:41;8.05;;;1.90;;
30096;SDS011;16915;51.466;3.610;2023-02-24T09:44:36;9.63;;;2.03;;
30096;SDS011;16915;51.466;3.610;2023-02-24T09:52:43;15.73;;;2.17;;
30096;SDS011;16915;51.466;3.610;2023-02-24T09:58:02;13.15;;;2.47;;
30096;SDS011;16915;51.466;3.610;2023-02-24T10:06:44;12.40;;;2.60;;
30096;SDS011;16915;51.466;3.610;2023-02-24T10:09:31;15.07;;;4.05;;
30096;SDS011;16915;51.466;3.610;2023-02-24T10:12:00;13.68;;;3.53;;
30096;SDS011;16915;51.466;3.610;2023-02-24T10:17:40;12.73;;;2.83;;
30096;SDS011;16915;51.466;3.610;2023-02-24T10:20:19;16.90;;;2.97;;
30096;SDS011;16915;51.466;3.610;2023-02-24T10:23:07;21.90;;;2.95;;
30096;SDS011;16915;51.466;3.610;2023-02-24T10:31:02;11.68;;;2.17;;
30096;SDS011;16915;51.466;3.610;2023-02-24T10:33:48;11.93;;;2.55;;
30096;SDS011;16915;51.466;3.610;2023-02-24T10:36:19;19.10;;;3.10;;
30096;SDS011;16915;51.466;3.610;2023-02-24T10:38:54;13.52;;;2.47;;
30096;SDS011;16915;51.466;3.610;2023-02-24T10:41:21;8.60;;;2.22;;
30096;SDS011;16915;51.466;3.610;2023-02-24T10:43:54;13.07;;;2.67;;
30096;SDS011;16915;51.466;3.610;2023-02-24T10:46:28;13.98;;;3.50;;
30096;SDS011;16915;51.466;3.610;2023-02-24T10:48:57;11.38;;;3.42;;
30096;SDS011;16915;51.466;3.610;2023-02-24T10:51:24;18.83;;;3.22;;
30096;SDS011;16915;51.466;3.610;2023-02-24T10:54:11;13.48;;;2.55;;
30096;SDS011;16915;51.466;3.610;2023-02-24T10:56:47;14.75;;;2.67;;
30096;SDS011;16915;51.466;3.610;2023-02-24T10:59:40;20.95;;;3.15;;
30096;SDS011;16915;51.466;3.610;2023-02-24T11:02:23;11.85;;;2.58;;
30096;SDS011;16915;51.466;3.610;2023-02-24T11:04:54;20.45;;;3.00;;
30096;SDS011;16915;51.466;3.610;2023-02-24T11:07:27;18.35;;;3.47;;
30096;SDS011;16915;51.466;3.610;2023-02-24T11:10:15;11.35;;;3.63;;
30096;SDS011;16915;51.466;3.610;2023-02-24T11:13:11;17.38;;;5.20;;
30096;SDS011;16915;51.466;3.610;2023-02-24T11:16:00;8.32;;;2.65;;
30096;SDS011;16915;51.466;3.610;2023-02-24T11:18:45;17.67;;;3.05;;
30096;SDS011;16915;51.466;3.610;2023-02-24T11:21:16;12.85;;;3.72;;
30096;SDS011;16915;51.466;3.610;2023-02-24T11:37:30;12.02;;;5.15;;
30096;SDS011;16915;51.466;3.610;2023-02-24T11:40:16;13.32;;;6.43;;
30096;SDS011;16915;51.466;3.610;2023-02-24T11:45:28;14.45;;;6.32;;
30096;SDS011;16915;51.466;3.610;2023-02-24T11:47:58;19.90;;;7.93;;
30096;SDS011;16915;51.466;3.610;2023-02-24T11:50:37;18.30;;;7.55;;
30096;SDS011;16915;51.466;3.610;2023-02-24T11:53:11;14.65;;;7.18;;
30096;SDS011;16915;51.466;3.610;2023-02-24T12:00:56;12.68;;;6.38;;
30096;SDS011;16915;51.466;3.610;2023-02-24T12:03:31;10.90;;;6.45;;
30096;SDS011;16915;51.466;3.610;2023-02-24T12:06:02;11.60;;;6.40;;
30096;SDS011;16915;51.466;3.610;2023-02-24T12:08:37;12.18;;;6.28;;
30096;SDS011;16915;51.466;3.610;2023-02-24T12:11:09;16.40;;;7.28;;
30096;SDS011;16915;51.466;3.610;2023-02-24T12:13:45;11.85;;;6.70;;
30096;SDS011;16915;51.466;3.610;2023-02-24T12:16:17;10.63;;;6.80;;
30096;SDS011;16915;51.466;3.610;2023-02-24T12:18:57;13.85;;;6.95;;
30096;SDS011;16915;51.466;3.610;2023-02-24T12:21:30;12.73;;;7.80;;
30096;SDS011;16915;51.466;3.610;2023-02-24T12:24:08;12.63;;;7.00;;
30096;SDS011;16915;51.466;3.610;2023-02-24T12:35:14;11.93;;;6.82;;
30096;SDS011;16915;51.466;3.610;2023-02-24T12:49:09;10.90;;;6.45;;
30096;SDS011;16915;51.466;3.610;2023-02-24T12:57:17;13.82;;;7.20;;
30096;SDS011;16915;51.466;3.610;2023-02-24T12:59:59;14.23;;;7.00;;
30096;SDS011;16915;51.466;3.610;2023-02-24T13:02:36;13.18;;;7.03;;
30096;SDS011;16915;51.466;3.610;2023-02-24T13:05:32;16.85;;;8.45;;
30096;SDS011;16915;51.466;3.610;2023-02-24T13:15:48;11.57;;;6.60;;
30096;SDS011;16915;51.466;3.610;2023-02-24T13:18:31;12.43;;;6.82;;
30096;SDS011;16915;51.466;3.610;2023-02-24T13:23:29;14.27;;;6.63;;
30096;SDS011;16915;51.466;3.610;2023-02-24T13:25:55;11.80;;;6.78;;
30096;SDS011;16915;51.466;3.610;2023-02-24T13:28:55;17.60;;;6.82;;
30096;SDS011;16915;51.466;3.610;2023-02-24T13:31:22;11.55;;;6.80;;
30096;SDS011;16915;51.466;3.610;2023-02-24T13:33:50;12.05;;;6.45;;
30096;SDS011;16915;51.466;3.610;2023-02-24T13:38:46;15.77;;;6.07;;
30096;SDS011;16915;51.466;3.610;2023-02-24T13:43:57;10.32;;;5.80;;
30096;SDS011;16915;51.466;3.610;2023-02-24T13:49:23;11.80;;;5.82;;
30096;SDS011;16915;51.466;3.610;2023-02-24T13:51:58;17.17;;;6.13;;
30096;SDS011;16915;51.466;3.610;2023-02-24T13:57:47;15.73;;;5.22;;
30096;SDS011;16915;51.466;3.610;2023-02-24T14:02:54;22.13;;;5.97;;
30096;SDS011;16915;51.466;3.610;2023-02-24T14:05:21;16.00;;;5.55;;
30096;SDS011;16915;51.466;3.610;2023-02-24T14:07:53;20.30;;;4.72;;
30096;SDS011;16915;51.466;3.610;2023-02-24T14:10:23;13.80;;;4.15;;
30096;SDS011;16915;51.466;3.610;2023-02-24T14:13:01;16.10;;;3.50;;
30096;SDS011;16915;51.466;3.610;2023-02-24T14:15:40;18.42;;;2.65;;
30096;SDS011;16915;51.466;3.610;2023-02-24T14:18:16;20.63;;;2.75;;
30096;SDS011;16915;51.466;3.610;2023-02-24T14:20:50;20.75;;;2.35;;
30096;SDS011;16915;51.466;3.610;2023-02-24T14:23:18;22.35;;;3.20;;
30096;SDS011;16915;51.466;3.610;2023-02-24T14:25:53;17.73;;;2.40;;
30096;SDS011;16915;51.466;3.610;2023-02-24T14:28:20;13.25;;;1.98;;
30096;SDS011;16915;51.466;3.610;2023-02-24T14:30:52;15.13;;;2.58;;
30096;SDS011;16915;51.466;3.610;2023-02-24T14:33:32;23.45;;;3.08;;
30096;SDS011;16915;51.466;3.610;2023-02-24T14:36:00;13.57;;;2.88;;
30096;SDS011;16915;51.466;3.610;2023-02-24T14:38:30;23.77;;;4.00;;
30096;SDS011;16915;51.466;3.610;2023-02-24T14:41:04;18.70;;;2.17;;
30096;SDS011;16915;51.466;3.610;2023-02-24T14:43:31;17.17;;;2.83;;
30096;SDS011;16915;51.466;3.610;2023-02-24T14:46:04;22.45;;;3.28;;
30096;SDS011;16915;51.466;3.610;2023-02-24T14:48:30;15.80;;;2.50;;
30096;SDS011;16915;51.466;3.610;2023-02-24T14:51:04;17.63;;;3.85;;
30096;SDS011;16915;51.466;3.610;2023-02-24T14:53:51;12.85;;;2.33;;
30096;SDS011;16915;51.466;3.610;2023-02-24T14:56:21;23.50;;;3.65;;
30096;SDS011;16915;51.466;3.610;2023-02-24T14:58:53;21.48;;;2.45;;
30096;SDS011;16915;51.466;3.610;2023-02-24T15:01:42;18.48;;;2.72;;
30096;SDS011;16915;51.466;3.610;2023-02-24T15:04:20;17.02;;;2.65;;
30096;SDS011;16915;51.466;3.610;2023-02-24T15:06:52;22.15;;;3.20;;
30096;SDS011;16915;51.466;3.610;2023-02-24T15:09:19;18.73;;;3.38;;
30096;SDS011;16915;51.466;3.610;2023-02-24T15:11:48;20.27;;;3.55;;
30096;SDS011;16915;51.466;3.610;2023-02-24T15:14:29;19.58;;;2.10;;
30096;SDS011;16915;51.466;3.610;2023-02-24T15:16:59;18.42;;;1.95;;
30096;SDS011;16915;51.466;3.610;2023-02-24T15:19:33;12.43;;;1.95;;
30096;SDS011;16915;51.466;3.610;2023-02-24T15:33:41;10.98;;;1.50;;
30096;SDS011;16915;51.466;3.610;2023-02-24T15:36:14;7.22;;;1.20;;
30096;SDS011;16915;51.466;3.610;2023-02-24T15:38:43;7.00;;;1.20;;
30096;SDS011;16915;51.466;3.610;2023-02-24T15:41:10;6.47;;;1.20;;
30096;SDS011;16915;51.466;3.610;2023-02-24T15:46:15;6.70;;;1.52;;
30096;SDS011;16915;51.466;3.610;2023-02-24T15:48:48;6.13;;;1.10;;
30096;SDS011;16915;51.466;3.610;2023-02-24T15:53:53;7.10;;;1.42;;
30096;SDS011;16915;51.466;3.610;2023-02-24T15:56:18;9.23;;;1.65;;
30096;SDS011;16915;51.466;3.610;2023-02-24T15:58:44;5.93;;;1.10;;
30096;SDS011;16915;51.466;3.610;2023-02-24T16:01:10;5.60;;;1.35;;
30096;SDS011;16915;51.466;3.610;2023-02-24T16:03:36;10.23;;;1.27;;
30096;SDS011;16915;51.466;3.610;2023-02-24T16:06:02;13.68;;;2.13;;
30096;SDS011;16915;51.466;3.610;2023-02-24T16:08:29;8.20;;;1.02;;
30096;SDS011;16915;51.466;3.610;2023-02-24T16:10:55;7.57;;;1.05;;
30096;SDS011;16915;51.466;3.610;2023-02-24T16:13:22;7.75;;;0.93;;
30096;SDS011;16915;51.466;3.610;2023-02-24T16:15:49;7.60;;;1.13;;
30096;SDS011;16915;51.466;3.610;2023-02-24T16:18:17;4.50;;;0.82;;
30096;SDS011;16915;51.466;3.610;2023-02-24T16:20:44;7.50;;;1.40;;
30096;SDS011;16915;51.466;3.610;2023-02-24T16:23:18;7.88;;;1.08;;
30096;SDS011;16915;51.466;3.610;2023-02-24T16:25:48;9.95;;;1.75;;
30096;SDS011;16915;51.466;3.610;2023-02-24T16:28:17;7.75;;;1.05;;
30096;SDS011;16915;51.466;3.610;2023-02-24T16:30:44;12.48;;;1.55;;
30096;SDS011;16915;51.466;3.610;2023-02-24T16:33:11;13.98;;;1.30;;
30096;SDS011;16915;51.466;3.610;2023-02-24T16:35:38;18.65;;;2.03;;
30096;SDS011;16915;51.466;3.610;2023-02-24T16:38:09;7.60;;;1.45;;
30096;SDS011;16915;51.466;3.610;2023-02-24T16:40:39;6.97;;;1.25;;
30096;SDS011;16915;51.466;3.610;2023-02-24T16:43:06;14.93;;;2.22;;
30096;SDS011;16915;51.466;3.610;2023-02-24T16:45:31;9.25;;;1.23;;
30096;SDS011;16915;51.466;3.610;2023-02-24T16:47:59;8.35;;;1.83;;
30096;SDS011;16915;51.466;3.610;2023-02-24T16:50:38;10.88;;;1.58;;
30096;SDS011;16915;51.466;3.610;2023-02-24T16:53:05;15.95;;;2.00;;
30096;SDS011;16915;51.466;3.610;2023-02-24T16:55:31;18.30;;;3.03;;
30096;SDS011;16915;51.466;3.610;2023-02-24T16:57:59;12.85;;;2.47;;
30096;SDS011;16915;51.466;3.610;2023-02-24T17:00:25;20.75;;;2.42;;
30096;SDS011;16915;51.466;3.610;2023-02-24T17:02:50;14.02;;;1.73;;
30096;SDS011;16915;51.466;3.610;2023-02-24T17:05:20;12.88;;;1.85;;
30096;SDS011;16915;51.466;3.610;2023-02-24T17:07:48;7.53;;;1.25;;
30096;SDS011;16915;51.466;3.610;2023-02-24T17:10:16;9.20;;;1.42;;
30096;SDS011;16915;51.466;3.610;2023-02-24T17:12:42;3.90;;;1.13;;
30096;SDS011;16915;51.466;3.610;2023-02-24T17:15:11;4.70;;;1.45;;
30096;SDS011;16915;51.466;3.610;2023-02-24T17:17:39;8.57;;;1.40;;
30096;SDS011;16915;51.466;3.610;2023-02-24T17:20:05;12.85;;;1.15;;
30096;SDS011;16915;51.466;3.610;2023-02-24T17:22:31;11.60;;;2.20;;
30096;SDS011;16915;51.466;3.610;2023-02-24T17:24:57;9.98;;;1.70;;
30096;SDS011;16915;51.466;3.610;2023-02-24T17:27:22;8.98;;;1.23;;
30096;SDS011;16915;51.466;3.610;2023-02-24T17:29:48;12.73;;;1.25;;
30096;SDS011;16915;51.466;3.610;2023-02-24T17:32:14;12.50;;;1.50;;
30096;SDS011;16915;51.466;3.610;2023-02-24T17:34:39;7.35;;;1.45;;
30096;SDS011;16915;51.466;3.610;2023-02-24T17:37:05;14.73;;;1.80;;
30096;SDS011;16915;51.466;3.610;2023-02-24T17:39:30;7.05;;;1.50;;
30096;SDS011;16915;51.466;3.610;2023-02-24T17:41:56;7.55;;;1.35;;
30096;SDS011;16915;51.466;3.610;2023-02-24T17:44:21;8.45;;;1.25;;
30096;SDS011;16915;51.466;3.610;2023-02-24T17:46:47;7.10;;;1.20;;
30096;SDS011;16915;51.466;3.610;2023-02-24T17:49:13;5.85;;;1.10;;
30096;SDS011;16915;51.466;3.610;2023-02-24T17:51:38;12.70;;;1.65;;
30096;SDS011;16915;51.466;3.610;2023-02-24T17:54:04;11.23;;;1.92;;
30096;SDS011;16915;51.466;3.610;2023-02-24T17:56:30;14.13;;;1.60;;
30096;SDS011;16915;51.466;3.610;2023-02-24T17:58:56;13.30;;;1.80;;
30096;SDS011;16915;51.466;3.610;2023-02-24T18:01:24;8.88;;;1.58;;
30096;SDS011;16915;51.466;3.610;2023-02-24T18:03:50;10.07;;;1.77;;
30096;SDS011;16915;51.466;3.610;2023-02-24T18:06:16;13.13;;;1.63;;